Terminal Aerodrome Forecast
Issued by NWS

Current Version | Previous Version | Text Only | Print | Product List | Glossary On
Versions: 1 2 3 4 5 6 7 8 9 10 11 12 13 14 15 16 17 18 19 20 21 22 23 24 25 26 27 28 29 30
000
FTUS41 KPHI 221924 AAA
TAFMIV
TAF AMD
KMIV 221924Z 2219/2318 06012G18KT P6SM OVC025
     FM222200 06012KT 3SM RA OVC015
     FM230400 04010KT P6SM OVC008
     FM231100 04010KT 5SM BR OVC007
     FM231500 08008KT 3SM -RA BR OVC005=

USA.gov is the U.S. government's official web portal to all federal, state and local government web resources and services.